Hauptseite
METAR-TAF:

METAR-TAF

Flughäfen :

Yellowstone Lake, Wyoming, Vereinigte Staaten

Breite: 44-32-40N, Länge: 110-25-16W, Höhe: 2388 m

Beobachtung

Neuester Wetterbericht von vor 9 Minuten, um 01:56 UTC
Windstille
Temperatur 10°C
Luftfeuchtigkeit 76%
Luftdruck 1030 hPa

METAR: KP60 190156Z AUTO 00000KT 10/06 A3043 RMK AO1 SLP250 T01000056

Zeit: 20:05 (02:05 UTC)


TAF: fehlend

Wetterbeobachtungen und Prognosen von mehr als 4000 Flughäfen (METAR und TAF Bericht).

Die verfügbaren Stationen werden durch gelbe und rote Markierungen auf der Karte dargestellt.

Führen Sie die Maus auf sie, um den Namen der Station zu sehen.

Darauf klicken, um die Beobachtung von Wetterbeobachtungen und Prognosen zu sehen.

Um die Karte zu ändern : klicken Sie auf den grünen Tasten mit einem schwarzen Kreuz Zum Vergrößern, auf den grünen Button mit einem Gedankenstrich zu verkleinern, oder auf die grünen Pfeile für benachbarte Karten.


METAR-TAF: